• Join FlightAware (Why Join?)
  • Login
  • US Flag 
01:02PM EDT


 

Airport Tracker/Info


-or-


 

Live Flight TrackerFlight Track Log ✈ FLG3780 ✈ 06-May-2013 ✈ KALB - KDTW

Flight Track Log - Related Links

Times and Time Zones

All times are in EDT time to prevent confusion due to time zone crossing. See the FLG3780 flight status page for this flight to view local times or setup timezone preferences in your user account.

Time Position Orientation Groundspeed Altitude Reporting Facility
EDT Latitude Longitude Course Direction KTS MPH feet Rate Location/Type
09:20AM 42.7256 -73.8108 283° West 153 176 1,300  Level Boston Center
09:21AM 42.6775 -73.8211 189° South 201 231 3,500 1,980 Climbing Boston Center
09:23AM 42.8119 -74.1830 281° West  Level FlightAware Approximate
09:23AM 42.7036 -73.9064 293° West 230 265 5,600  Level Boston Center
09:24AM 42.8307 -74.3150 281° West  Level FlightAware Approximate
09:25AM 42.8522 -74.4463 283° West  Level FlightAware Approximate
09:25AM 42.8072 -74.0986 306° West 275 316 11,200  Level Boston Center
09:26AM 42.8842 -74.5714 283° West  Level FlightAware Approximate
09:26AM 42.8681 -74.2133 306° West 325 374 12,400  Level Boston Center
09:28AM 42.9556 -74.4656 295° West 365 420 15,200 1,380 Climbing Boston Center
09:29AM 42.9697 -74.5967 278° West 379 436 16,600 1,440 Climbing Boston Center
09:31AM 43.0075 -74.8961 280° West 390 449 19,600 1,560 Climbing Boston Center
09:32AM 43.0253 -75.0331 280° West 384 442 21,300 1,680 Climbing Boston Center
09:33AM 43.0408 -75.1703 279° West 379 436 23,000 1,500 Climbing Boston Center
09:34AM 43.0567 -75.2931 280° West 374 430 24,300 1,140 Climbing Boston Center
09:35AM 43.0719 -75.4303 279° West 367 422 25,300 1,020 Climbing Boston Center
09:36AM 43.0889 -75.5706 279° West 372 428 26,400 900 Climbing Boston Center
09:38AM 43.1222 -75.8594 279° West 377 434 28,000 360 Climbing Boston Center
09:40AM 43.1583 -76.1914 279° West 403 464 28,000  Level Cleveland Center
09:41AM 43.1481 -76.3572 265° West 422 486 28,000  Level Cleveland Center
09:43AM 43.1164 -76.7092 263° West 450 518 28,000  Level Cleveland Center
09:44AM 43.1014 -76.8808 263° West 450 518 28,000  Level Cleveland Center
09:46AM 43.0717 -77.2122 263° West 450 518 28,000  Level Cleveland Center
09:47AM 43.0578 -77.3750 263° West 450 518 28,000  Level Cleveland Center
09:48AM 43.0411 -77.5378 262° West 450 518 28,000  Level Cleveland Center
09:49AM 43.0267 -77.6978 263° West 450 518 28,000  Level Cleveland Center
09:51AM 43.0018 -77.9156 261° West  Level FlightAware Approximate
09:51AM 42.9947 -78.0228 261° West 445 512 28,000  Level Cleveland Center
09:52AM 42.9789 -78.1683 262° West 445 512 28,000  Level Cleveland Center
09:53AM 42.9633 -78.3278 262° West 440 506 28,000  Level Cleveland Center
09:55AM 42.9297 -78.6522 262° West 435 501 28,000  Level Cleveland Center
09:56AM 42.9072 -78.8089 259° West 429 494 28,000  Level Cleveland Center
09:57AM 42.8844 -78.9711 259° West 434 499 28,000  Level Cleveland Center
09:58AM 42.8617 -79.1303 259° West 434 499 28,000  Level Cleveland Center
09:59AM 42.8406 -79.2919 260° West 434 499 28,000  Level Cleveland Center
10:01AM 42.7917 -79.6100 258° West 434 499 28,000  Level Cleveland Center
10:02AM 42.7681 -79.7717 259° West 434 499 28,000  Level Cleveland Center
10:03AM 42.7503 -79.9328 262° West 434 499 28,000  Level Cleveland Center
10:04AM 42.7386 -80.1139 265° West 434 499 28,000  Level Cleveland Center
10:06AM 42.7182 -80.3338 263° West  Level FlightAware Approximate
10:07AM 42.7186 -80.6058 263° West 440 506 28,000  Level Cleveland Center
10:08AM 42.7122 -80.7697 267° West 440 506 27,300 -1,020 Descending Cleveland Center
10:09AM 42.7036 -80.9336 266° West 446 513 26,100 -1,200 Descending Cleveland Center
10:10AM 42.6842 -81.0944 261° West 438 504 24,900 -1,260 Descending Cleveland Center
10:12AM 42.6587 -81.3123 261° West  Level FlightAware Approximate
10:12AM 42.6469 -81.4158 261° West 438 504 22,400  Level Cleveland Center
10:14AM 42.6210 -81.6311 261° West  Level FlightAware Approximate
10:14AM 42.6086 -81.7314 261° West 427 491 19,800  Level Cleveland Center
10:15AM 42.5883 -81.8889 260° West 427 491 18,300 -1,440 Descending Cleveland Center
10:16AM 42.5719 -82.0353 261° West 422 486 17,000 -1,440 Descending Cleveland Center
10:17AM 42.5533 -82.1814 260° West 410 472 15,400 -1,620 Descending Cleveland Center
10:18AM 42.5344 -82.3244 260° West 399 459 13,900 -1,560 Descending Cleveland Center
10:19AM 42.5200 -82.4594 262° West 385 443 12,400 -900 Descending Cleveland Center
10:20AM 42.4861 -82.6133 253° West 352 405 12,000 -180 Descending Cleveland Center
10:22AM 42.4115 -82.7989 246° West  Level FlightAware Approximate
10:22AM 42.3936 -82.8744 246° West 360 414 12,000  Level Cleveland Center
10:23AM 42.3628 -82.9494 241° Southwest 363 418 12,000  Level Cleveland Center
10:25AM 42.2992 -83.1911 250° West 353 406 12,000 -60 Level Cleveland Center
10:26AM 42.2881 -83.3142 263° West 348 400 11,900 -480 Descending Cleveland Center
10:27AM 42.2775 -83.4092 261° West 292 336 11,100 -660 Descending Cleveland Center
10:27AM 42.2581 -83.4364 226° Southwest 236 272 11,000 -420 Descending Cleveland Center
10:28AM 42.2261 -83.4658 214° Southwest 231 266 10,700 -840 Descending Cleveland Center
10:28AM 42.2044 -83.4928 223° Southwest 243 280 10,200 -1,620 Descending Cleveland Center
10:30AM 42.2000 -83.3500 246° West  Level FlightAware Approximate
10:32AM 42.0403 -83.5581 246° West 216 249 5,000  Level Cleveland Center
10:33AM 42.0647 -83.4919 64° Northeast 221 254 4,100 -960 Descending Cleveland Center
10:34AM 42.1139 -83.4494 33° Northeast 202 232 3,200 -1,140 Descending Cleveland Center
10:35AM 42.1564 -83.4178 29° Northeast 145 167 1,800 -1,320 Descending Cleveland Center
10:37AM 42.2124 -83.3534 246° West  Level Estimated